createdAt,value
2023-04-08T00:01:46.405Z,13.70
2023-04-08T00:04:32.377Z,13.70
2023-04-08T00:07:18.278Z,13.70
2023-04-08T00:10:04.502Z,13.70
2023-04-08T00:12:50.263Z,13.60
2023-04-08T00:15:37.184Z,13.70
2023-04-08T00:18:23.408Z,13.70
2023-04-08T00:21:09.235Z,13.60
2023-04-08T00:23:55.753Z,13.60
2023-04-08T00:26:41.597Z,13.60
2023-04-08T00:29:27.317Z,13.60
2023-04-08T00:32:13.540Z,13.60
2023-04-08T00:34:59.323Z,13.60
2023-04-08T00:37:46.165Z,13.60
2023-04-08T00:40:32.410Z,13.60
2023-04-08T00:43:20.855Z,13.60
2023-04-08T00:46:06.964Z,13.50
2023-04-08T00:48:52.986Z,13.60
2023-04-08T00:51:38.902Z,13.60
2023-04-08T00:54:25.101Z,13.60
2023-04-08T00:57:10.884Z,13.60
2023-04-08T00:59:56.486Z,13.60
2023-04-08T01:03:05.656Z,13.60
2023-04-08T01:05:59.117Z,13.60
2023-04-08T01:08:46.011Z,13.50
2023-04-08T01:11:35.192Z,13.60
2023-04-08T01:14:24.098Z,13.60
2023-04-08T01:17:11.456Z,13.60
2023-04-08T01:20:01.593Z,13.60
2023-04-08T01:23:11.102Z,13.60
2023-04-08T01:25:58.326Z,13.60
2023-04-08T01:28:45.949Z,13.60
2023-04-08T01:31:32.683Z,13.60
2023-04-08T01:34:21.011Z,13.60
2023-04-08T01:37:08.323Z,13.60
2023-04-08T01:39:55.484Z,13.60
2023-04-08T01:42:42.489Z,13.60
2023-04-08T01:45:30.999Z,13.60
2023-04-08T01:48:16.631Z,13.60
2023-04-08T01:51:04.915Z,13.60
2023-04-08T01:53:50.580Z,13.60
2023-04-08T01:56:41.671Z,13.70
2023-04-08T01:59:32.539Z,13.70
2023-04-08T02:02:21.576Z,13.70
2023-04-08T02:05:07.712Z,13.70
2023-04-08T02:07:53.351Z,13.70
2023-04-08T02:10:39.158Z,13.70
2023-04-08T02:13:25.286Z,13.70
2023-04-08T02:16:22.615Z,13.70
2023-04-08T02:19:49.894Z,13.70
2023-04-08T02:22:49.711Z,13.70
2023-04-08T02:25:38.284Z,13.60
2023-04-08T02:28:26.633Z,13.60
2023-04-08T02:31:13.755Z,13.60
2023-04-08T02:34:05.528Z,13.60
2023-04-08T02:36:52.437Z,13.50
2023-04-08T02:39:38.500Z,13.50
2023-04-08T02:42:24.558Z,13.50
2023-04-08T02:45:11.800Z,13.50
2023-04-08T02:47:59.477Z,13.50
2023-04-08T02:50:46.637Z,13.50
2023-04-08T02:53:32.244Z,13.50
2023-04-08T02:56:18.411Z,13.50
2023-04-08T02:59:04.502Z,13.50
2023-04-08T03:01:50.007Z,13.60
2023-04-08T03:04:35.934Z,13.60
2023-04-08T03:07:21.869Z,13.60
2023-04-08T03:10:08.405Z,13.60
2023-04-08T03:12:53.909Z,13.60
2023-04-08T03:15:39.277Z,13.60
2023-04-08T03:18:26.318Z,13.60
2023-04-08T03:21:11.723Z,13.60
2023-04-08T03:23:57.683Z,13.70
2023-04-08T03:26:43.363Z,13.70
2023-04-08T03:29:29.015Z,13.70
2023-04-08T03:32:15.152Z,13.70
2023-04-08T03:35:01.100Z,13.70
2023-04-08T03:37:47.236Z,13.60
2023-04-08T03:40:33.238Z,13.60
2023-04-08T03:43:21.862Z,13.60
2023-04-08T03:46:08.020Z,13.60
2023-04-08T03:48:53.935Z,13.60
2023-04-08T03:51:39.346Z,13.60
2023-04-08T03:54:25.305Z,13.60
2023-04-08T03:57:11.987Z,13.60
2023-04-08T03:59:57.938Z,13.60
2023-04-08T04:02:43.941Z,13.60
2023-04-08T04:05:29.924Z,13.60
2023-04-08T04:08:15.813Z,13.60
2023-04-08T04:11:01.312Z,13.60
2023-04-08T04:13:46.847Z,13.60
2023-04-08T04:16:33.186Z,13.60
2023-04-08T04:19:18.956Z,13.60
2023-04-08T04:22:04.432Z,13.60
2023-04-08T04:24:50.501Z,13.60
2023-04-08T04:27:36.794Z,13.60
2023-04-08T04:30:22.557Z,13.60
2023-04-08T04:33:08.005Z,13.60
2023-04-08T04:35:53.788Z,13.60
2023-04-08T04:38:39.516Z,13.60
2023-04-08T04:41:25.332Z,13.60
2023-04-08T04:44:11.411Z,13.60
2023-04-08T04:46:57.370Z,13.60
2023-04-08T04:49:42.916Z,13.60
2023-04-08T04:52:28.645Z,13.50
2023-04-08T04:55:15.793Z,13.50
2023-04-08T04:58:01.779Z,13.50
2023-04-08T05:00:47.764Z,13.50
2023-04-08T05:03:34.026Z,13.50
2023-04-08T05:06:19.527Z,13.50
2023-04-08T05:09:05.378Z,13.50
2023-04-08T05:11:51.096Z,13.50
2023-04-08T05:14:36.510Z,13.50
2023-04-08T05:17:22.179Z,13.50
2023-04-08T05:20:08.714Z,13.50
2023-04-08T05:22:54.632Z,13.50
2023-04-08T05:25:39.950Z,13.50
2023-04-08T05:28:26.285Z,13.50
2023-04-08T05:31:12.127Z,13.50
2023-04-08T05:33:57.737Z,13.50
2023-04-08T05:36:43.969Z,13.50
2023-04-08T05:39:29.602Z,13.50
2023-04-08T05:42:15.114Z,13.40
2023-04-08T05:45:00.675Z,13.40
2023-04-08T05:47:46.974Z,13.40
2023-04-08T05:50:36.086Z,13.40
2023-04-08T05:53:22.029Z,13.40
2023-04-08T05:56:07.541Z,13.40
2023-04-08T05:58:53.557Z,13.40
2023-04-08T06:01:39.061Z,13.50
2023-04-08T06:04:25.090Z,13.50
2023-04-08T06:07:10.812Z,13.50
2023-04-08T06:09:56.293Z,13.50
2023-04-08T06:12:42.073Z,13.50
2023-04-08T06:15:28.064Z,13.50
2023-04-08T06:18:13.606Z,13.50
2023-04-08T06:20:59.668Z,13.50
2023-04-08T06:23:45.547Z,13.60
2023-04-08T06:26:31.581Z,13.60
2023-04-08T06:29:17.261Z,13.60
2023-04-08T06:32:02.987Z,13.60
2023-04-08T06:34:49.652Z,13.70
2023-04-08T06:37:38.441Z,13.70
2023-04-08T06:40:24.160Z,13.70
2023-04-08T06:43:09.596Z,13.70
2023-04-08T06:45:58.789Z,13.70
2023-04-08T06:48:44.449Z,13.70
2023-04-08T06:51:30.472Z,13.70
2023-04-08T06:54:16.128Z,13.70
2023-04-08T06:57:01.611Z,13.80
2023-04-08T06:59:47.684Z,13.80
2023-04-08T07:02:33.184Z,13.80
2023-04-08T07:05:19.066Z,13.80
2023-04-08T07:08:08.373Z,13.80
2023-04-08T07:10:54.022Z,13.80
2023-04-08T07:13:39.927Z,13.80
2023-04-08T07:16:25.371Z,13.80
2023-04-08T07:19:11.760Z,13.80
2023-04-08T07:21:57.959Z,13.90
2023-04-08T07:24:45.716Z,13.90
2023-04-08T07:27:37.133Z,13.90
2023-04-08T07:30:23.423Z,14.00
2023-04-08T07:33:09.018Z,13.90
2023-04-08T07:35:54.624Z,14.00
2023-04-08T07:38:40.948Z,14.00
2023-04-08T07:41:27.131Z,14.00
2023-04-08T07:44:15.088Z,14.00
2023-04-08T07:47:00.782Z,14.00
2023-04-08T07:49:49.258Z,14.10
2023-04-08T07:52:35.092Z,14.10
2023-04-08T07:55:21.086Z,14.10
2023-04-08T07:58:07.228Z,14.10
2023-04-08T08:00:53.339Z,14.10
2023-04-08T08:03:39.991Z,14.10
2023-04-08T08:06:25.850Z,14.20
2023-04-08T08:09:12.093Z,14.20
2023-04-08T08:11:57.581Z,14.20
2023-04-08T08:14:42.777Z,14.20
2023-04-08T08:17:31.014Z,14.20
2023-04-08T08:20:17.284Z,14.20
2023-04-08T08:23:02.552Z,14.30
2023-04-08T08:25:47.997Z,14.30
2023-04-08T08:28:33.905Z,14.30
2023-04-08T08:31:19.733Z,14.40
2023-04-08T08:34:05.904Z,14.40
2023-04-08T08:36:51.563Z,14.40
2023-04-08T08:39:38.009Z,14.50
2023-04-08T08:42:25.986Z,14.50
2023-04-08T08:45:11.928Z,14.60
2023-04-08T08:48:01.095Z,14.60
2023-04-08T08:50:47.551Z,14.60
2023-04-08T08:53:35.899Z,14.60
2023-04-08T08:56:22.112Z,14.70
2023-04-08T08:59:07.738Z,14.70
2023-04-08T09:01:53.584Z,14.80
2023-04-08T09:04:39.852Z,14.80
2023-04-08T09:07:28.721Z,14.90
2023-04-08T09:10:15.946Z,15.00
2023-04-08T09:13:02.553Z,15.10
2023-04-08T09:16:19.946Z,15.20
2023-04-08T09:19:11.140Z,15.20
2023-04-08T09:22:09.213Z,15.30
2023-04-08T09:24:55.337Z,15.30
2023-04-08T09:27:41.271Z,15.40
2023-04-08T09:30:28.236Z,15.50
2023-04-08T09:33:14.225Z,15.50
2023-04-08T09:36:00.318Z,15.60
2023-04-08T09:38:48.126Z,15.60
2023-04-08T09:41:38.896Z,15.60
2023-04-08T09:44:29.437Z,15.70
2023-04-08T09:47:29.080Z,15.70
2023-04-08T09:50:17.090Z,15.70
2023-04-08T09:53:27.155Z,15.70
2023-04-08T09:56:16.211Z,15.70
2023-04-08T09:59:17.916Z,15.70
2023-04-08T10:02:10.237Z,15.70
2023-04-08T10:05:01.672Z,15.80
2023-04-08T10:07:49.210Z,15.80
2023-04-08T10:10:37.088Z,15.70
2023-04-08T10:13:24.045Z,15.70
2023-04-08T10:16:26.078Z,15.70
2023-04-08T10:19:41.140Z,15.70
2023-04-08T10:22:30.099Z,15.70
2023-04-08T10:25:16.730Z,15.60
2023-04-08T10:28:23.036Z,15.60
2023-04-08T10:31:23.257Z,15.60
2023-04-08T10:34:24.895Z,15.60
2023-04-08T10:37:11.409Z,15.60
2023-04-08T10:39:57.330Z,15.50
2023-04-08T10:42:43.306Z,15.60
2023-04-08T10:45:29.199Z,15.60
2023-04-08T10:48:17.992Z,15.60
2023-04-08T10:51:07.140Z,15.60
2023-04-08T10:53:53.339Z,15.60
2023-04-08T10:56:53.997Z,15.60
2023-04-08T10:59:39.981Z,15.50
2023-04-08T11:02:34.075Z,15.50
2023-04-08T11:05:23.312Z,15.50
2023-04-08T11:08:09.625Z,15.50
2023-04-08T11:10:56.004Z,15.50
2023-04-08T11:13:52.937Z,15.50
2023-04-08T11:16:41.109Z,15.50
2023-04-08T11:19:26.770Z,15.50
2023-04-08T11:22:13.343Z,15.50
2023-04-08T11:25:01.516Z,15.50
2023-04-08T11:27:49.603Z,15.50
2023-04-08T11:30:35.697Z,15.50
2023-04-08T11:33:22.011Z,15.50
2023-04-08T11:36:08.580Z,15.50
2023-04-08T11:38:55.952Z,15.50
2023-04-08T11:41:42.354Z,15.50
2023-04-08T11:44:33.081Z,15.50
2023-04-08T11:47:18.890Z,15.60
2023-04-08T11:50:05.150Z,15.60
2023-04-08T11:52:53.917Z,15.60
2023-04-08T11:55:39.903Z,15.60
2023-04-08T11:58:25.910Z,15.50
2023-04-08T12:01:12.498Z,15.50
2023-04-08T12:04:01.203Z,15.50
2023-04-08T12:06:47.436Z,15.60
2023-04-08T12:09:33.462Z,15.60
2023-04-08T12:12:18.907Z,15.60
2023-04-08T12:15:06.320Z,15.50
2023-04-08T12:17:52.398Z,15.60
2023-04-08T12:20:38.326Z,15.60
2023-04-08T12:23:24.418Z,15.60
2023-04-08T12:26:10.605Z,15.60
2023-04-08T12:28:56.816Z,15.60
2023-04-08T12:31:42.252Z,15.50
2023-04-08T12:34:28.669Z,15.50
2023-04-08T12:37:14.744Z,15.50
2023-04-08T12:40:00.715Z,15.50
2023-04-08T12:42:46.951Z,15.40
2023-04-08T12:45:32.890Z,15.40
2023-04-08T12:48:18.922Z,15.40
2023-04-08T12:51:04.766Z,15.40
2023-04-08T12:53:50.281Z,15.40
2023-04-08T12:56:36.159Z,15.40
2023-04-08T12:59:21.945Z,15.40
2023-04-08T13:02:08.326Z,15.40
2023-04-08T13:04:55.345Z,15.40
2023-04-08T13:07:41.402Z,15.50
2023-04-08T13:10:27.683Z,15.40
2023-04-08T13:13:14.353Z,15.50
2023-04-08T13:15:59.992Z,15.50
2023-04-08T13:18:45.973Z,15.50
2023-04-08T13:21:32.262Z,15.50
2023-04-08T13:24:18.262Z,15.50
2023-04-08T13:27:03.879Z,15.50
2023-04-08T13:29:49.800Z,15.40
2023-04-08T13:32:35.772Z,15.40
2023-04-08T13:35:21.731Z,15.50
2023-04-08T13:38:07.767Z,15.50
2023-04-08T13:40:53.538Z,15.50
2023-04-08T13:43:39.751Z,15.40
2023-04-08T13:46:25.530Z,15.40
2023-04-08T13:49:11.462Z,15.40
2023-04-08T13:51:56.880Z,15.40
2023-04-08T13:54:42.502Z,15.30
2023-04-08T13:57:28.298Z,15.30
2023-04-08T14:00:14.209Z,15.20
2023-04-08T14:03:00.709Z,15.20
2023-04-08T14:05:46.505Z,15.20
2023-04-08T14:08:32.321Z,15.10
2023-04-08T14:11:17.761Z,15.10
2023-04-08T14:14:03.941Z,15.10
2023-04-08T14:16:49.759Z,15.10
2023-04-08T14:19:35.584Z,15.10
2023-04-08T14:22:21.228Z,15.10
2023-04-08T14:25:07.435Z,15.10
2023-04-08T14:27:58.612Z,15.10
2023-04-08T14:30:44.456Z,15.10
2023-04-08T14:33:31.541Z,15.10
2023-04-08T14:36:17.321Z,15.10
2023-04-08T14:39:03.448Z,15.10
2023-04-08T14:41:49.254Z,15.10
2023-04-08T14:44:35.378Z,15.10
2023-04-08T14:47:21.110Z,15.10
2023-04-08T14:50:08.050Z,15.10
2023-04-08T14:52:54.833Z,15.10
2023-04-08T14:55:40.307Z,15.10
2023-04-08T14:58:26.459Z,15.00
2023-04-08T15:01:12.516Z,15.00
2023-04-08T15:03:58.740Z,15.00
2023-04-08T15:06:44.571Z,15.00
2023-04-08T15:09:29.859Z,15.00
2023-04-08T15:12:15.282Z,14.90
2023-04-08T15:15:01.024Z,14.90
2023-04-08T15:17:47.038Z,14.90
2023-04-08T15:20:32.817Z,14.90
2023-04-08T15:23:18.970Z,14.80
2023-04-08T15:26:04.926Z,14.80
2023-04-08T15:28:52.648Z,14.80
2023-04-08T15:31:38.266Z,14.80
2023-04-08T15:34:24.243Z,14.70
2023-04-08T15:37:09.881Z,14.70
2023-04-08T15:39:55.512Z,14.70
2023-04-08T15:42:42.506Z,14.60
2023-04-08T15:45:28.793Z,14.60
2023-04-08T15:48:15.453Z,14.60
2023-04-08T15:51:08.233Z,14.50
2023-04-08T15:53:54.632Z,14.50
2023-04-08T15:56:40.740Z,14.50
2023-04-08T15:59:30.895Z,14.40
2023-04-08T16:02:16.675Z,14.40
2023-04-08T16:05:03.880Z,14.40
2023-04-08T16:07:49.726Z,14.40
2023-04-08T16:10:35.947Z,14.40
2023-04-08T16:13:21.981Z,14.30
2023-04-08T16:16:08.791Z,14.30
2023-04-08T16:18:56.621Z,14.30
2023-04-08T16:21:42.578Z,14.30
2023-04-08T16:24:28.000Z,14.30
2023-04-08T16:27:13.856Z,14.30
2023-04-08T16:29:59.606Z,14.30
2023-04-08T16:32:45.297Z,14.30
2023-04-08T16:35:31.772Z,14.30
2023-04-08T16:38:17.760Z,14.20
2023-04-08T16:41:06.252Z,14.20
2023-04-08T16:43:53.144Z,14.20
2023-04-08T16:46:38.815Z,14.20
2023-04-08T16:49:25.108Z,14.20
2023-04-08T16:52:10.964Z,14.20
2023-04-08T16:54:57.726Z,14.20
2023-04-08T16:57:44.035Z,14.20
2023-04-08T17:00:30.892Z,14.20
2023-04-08T17:03:17.538Z,14.20
2023-04-08T17:06:14.922Z,14.20
2023-04-08T17:09:01.335Z,14.20
2023-04-08T17:11:48.223Z,14.20
2023-04-08T17:14:34.980Z,14.20
2023-04-08T17:17:21.206Z,14.20
2023-04-08T17:20:08.127Z,14.20
2023-04-08T17:22:54.241Z,14.20
2023-04-08T17:25:40.745Z,14.10
2023-04-08T17:28:26.560Z,14.10
2023-04-08T17:31:11.982Z,14.10
2023-04-08T17:33:57.251Z,14.10
2023-04-08T17:36:43.066Z,14.10
2023-04-08T17:39:30.164Z,14.10
2023-04-08T17:42:16.917Z,14.10
2023-04-08T17:45:02.865Z,14.10
2023-04-08T17:47:48.695Z,14.00
2023-04-08T17:50:34.857Z,14.00
2023-04-08T17:53:21.114Z,14.00
2023-04-08T17:56:07.176Z,14.00
2023-04-08T17:58:53.336Z,14.00
2023-04-08T18:01:39.084Z,14.00
2023-04-08T18:04:25.050Z,13.90
2023-04-08T18:07:11.649Z,13.90
2023-04-08T18:09:57.452Z,13.90
2023-04-08T18:12:43.555Z,13.90
2023-04-08T18:15:29.744Z,13.90
2023-04-08T18:18:19.637Z,13.90
2023-04-08T18:21:06.099Z,13.90
2023-04-08T18:23:52.561Z,13.80
2023-04-08T18:26:39.023Z,13.80
2023-04-08T18:29:24.676Z,13.90
2023-04-08T18:32:10.808Z,13.90
2023-04-08T18:34:57.204Z,13.80
2023-04-08T18:37:42.865Z,13.80
2023-04-08T18:40:29.651Z,13.80
2023-04-08T18:43:15.570Z,13.80
2023-04-08T18:46:01.443Z,13.80
2023-04-08T18:48:49.193Z,13.80
2023-04-08T18:51:35.272Z,13.80
2023-04-08T18:54:22.060Z,13.80
2023-04-08T18:57:07.693Z,13.80
2023-04-08T18:59:53.642Z,13.80
2023-04-08T19:02:39.600Z,13.80
2023-04-08T19:05:26.715Z,13.80
2023-04-08T19:08:12.577Z,13.80
2023-04-08T19:10:58.719Z,13.80
2023-04-08T19:13:45.008Z,13.80
2023-04-08T19:16:30.826Z,13.80
2023-04-08T19:19:17.225Z,13.80
2023-04-08T19:22:05.785Z,13.80
2023-04-08T19:24:53.806Z,13.80
2023-04-08T19:27:41.043Z,13.80
2023-04-08T19:30:26.880Z,13.80
2023-04-08T19:33:12.536Z,13.80
2023-04-08T19:35:58.348Z,13.80
2023-04-08T19:38:43.889Z,13.80
2023-04-08T19:41:30.586Z,13.80
2023-04-08T19:44:16.048Z,13.80
2023-04-08T19:47:02.806Z,13.80
2023-04-08T19:49:48.346Z,13.80
2023-04-08T19:52:34.386Z,13.80
2023-04-08T19:55:21.600Z,13.80
2023-04-08T19:58:08.051Z,13.80
2023-04-08T20:00:53.953Z,13.70
2023-04-08T20:03:44.856Z,13.70
2023-04-08T20:06:30.834Z,13.70
2023-04-08T20:09:19.921Z,13.70
2023-04-08T20:12:06.735Z,13.70
2023-04-08T20:14:52.726Z,13.70
2023-04-08T20:17:38.687Z,13.70
2023-04-08T20:20:27.257Z,13.60
2023-04-08T20:23:14.546Z,13.60
2023-04-08T20:26:00.573Z,13.60
2023-04-08T20:28:46.862Z,13.60
2023-04-08T20:31:32.600Z,13.60
2023-04-08T20:34:21.201Z,13.60
2023-04-08T20:37:07.816Z,13.60
2023-04-08T20:39:55.038Z,13.50
2023-04-08T20:42:44.040Z,13.50
2023-04-08T20:45:30.814Z,13.50
2023-04-08T20:48:17.123Z,13.50
2023-04-08T20:51:03.469Z,13.50
2023-04-08T20:53:49.194Z,13.50
2023-04-08T20:56:35.350Z,13.50
2023-04-08T20:59:21.140Z,13.50
2023-04-08T21:02:08.335Z,13.40
2023-04-08T21:04:54.563Z,13.40
2023-04-08T21:07:44.629Z,13.40
2023-04-08T21:10:30.500Z,13.40
2023-04-08T21:13:16.260Z,13.40
2023-04-08T21:16:02.532Z,13.40
2023-04-08T21:18:48.192Z,13.40
2023-04-08T21:21:34.311Z,13.40
2023-04-08T21:24:20.062Z,13.40
2023-04-08T21:27:06.202Z,13.40
2023-04-08T21:29:52.710Z,13.40
2023-04-08T21:32:39.131Z,13.40
2023-04-08T21:35:25.204Z,13.40
2023-04-08T21:38:11.270Z,13.40
2023-04-08T21:40:57.153Z,13.40
2023-04-08T21:43:42.700Z,13.40
2023-04-08T21:46:28.696Z,13.40
2023-04-08T21:49:14.455Z,13.40
2023-04-08T21:52:00.570Z,13.40
2023-04-08T21:54:50.769Z,13.40
2023-04-08T21:57:36.749Z,13.40
2023-04-08T22:00:23.099Z,13.40
2023-04-08T22:03:09.242Z,13.40
2023-04-08T22:05:55.466Z,13.40
2023-04-08T22:08:41.537Z,13.40
2023-04-08T22:11:27.618Z,13.40
2023-04-08T22:14:13.785Z,13.40
2023-04-08T22:17:00.179Z,13.30
2023-04-08T22:19:46.299Z,13.40
2023-04-08T22:22:32.426Z,13.30
2023-04-08T22:25:19.145Z,13.30
2023-04-08T22:28:04.828Z,13.30
2023-04-08T22:30:51.086Z,13.30
2023-04-08T22:33:37.014Z,13.30
2023-04-08T22:36:22.335Z,13.30
2023-04-08T22:39:08.050Z,13.30
2023-04-08T22:41:53.882Z,13.30
2023-04-08T22:44:39.781Z,13.30
2023-04-08T22:47:26.435Z,13.30
2023-04-08T22:50:12.127Z,13.30
2023-04-08T22:52:59.618Z,13.20
2023-04-08T22:55:45.886Z,13.20
2023-04-08T22:58:31.855Z,13.20
2023-04-08T23:01:20.829Z,13.20
2023-04-08T23:04:07.075Z,13.20
2023-04-08T23:06:53.212Z,13.20
2023-04-08T23:09:39.094Z,13.20
2023-04-08T23:12:25.211Z,13.10
2023-04-08T23:15:11.290Z,13.10
2023-04-08T23:17:57.479Z,13.10
2023-04-08T23:20:54.754Z,13.10
2023-04-08T23:23:40.436Z,13.00
2023-04-08T23:26:26.254Z,13.00
2023-04-08T23:29:11.991Z,13.00
2023-04-08T23:31:58.176Z,13.00
2023-04-08T23:34:43.666Z,13.00
2023-04-08T23:37:29.882Z,13.00
2023-04-08T23:40:15.791Z,12.90
2023-04-08T23:43:02.408Z,12.90
2023-04-08T23:45:47.972Z,12.90
2023-04-08T23:48:33.396Z,12.80
2023-04-08T23:51:19.336Z,12.90
2023-04-08T23:54:05.738Z,12.80
2023-04-08T23:56:51.669Z,12.80
2023-04-08T23:59:37.911Z,12.80
